.
WxDataArchive / Data Records for 2012-06-24
2012-06-23 June 2012 2012-06-25

Data Records for Sunday, 24 June 2012

Time	Temp	Chill	HIndex	Humid	Dewpt	 Wind 	HiWind	WindDir	Rain 	Barom 
-----	----	-----	------	-----	-----	------	------	-------	-----	----- 
00:00	74.4	74.4	74.4	49	54.0	0	0	---	0.00	29.995 
00:05	74.0	74.0	74.0	50	54.2	0	0	---	0.00	29.995 
00:10	73.7	73.7	73.7	50	53.9	0	0	---	0.00	29.995 
00:15	73.3	73.3	73.3	50	53.5	0	0	---	0.00	29.991 
00:20	73.0	73.0	73.0	51	53.8	0	0	---	0.00	29.991 
00:25	72.8	72.8	72.8	53	54.7	0	0	---	0.00	29.991 
00:30	72.5	72.5	72.5	54	54.9	0	0	---	0.00	29.992 
00:35	72.1	72.1	72.1	54	54.5	0	0	---	0.00	29.992 
00:40	72.0	72.0	72.0	54	54.4	0	0	---	0.00	29.992 
00:45	71.8	71.8	71.8	55	54.7	0	0	---	0.00	29.992 
00:50	71.6	71.6	71.6	55	54.6	0	0	---	0.00	29.992 
00:55	71.5	71.5	71.5	56	55.0	0	0	---	0.00	29.992 
01:00	71.3	71.3	71.3	55	54.3	0	0	---	0.00	29.995 
01:05	71.1	71.1	71.1	57	55.1	0	0	---	0.00	29.995 
01:10	70.9	70.9	70.9	57	54.9	0	0	---	0.00	29.995 
01:15	70.8	70.8	70.8	57	54.8	0	0	---	0.00	29.991 
01:20	71.1	71.1	71.1	57	55.1	0	0	---	0.00	29.991 
01:25	71.1	71.1	71.1	58	55.6	0	0	---	0.00	29.991 
01:30	71.1	71.1	71.1	57	55.1	0	0	---	0.00	29.992 
01:35	70.9	70.9	70.9	56	54.4	0	0	---	0.00	29.992 
01:40	70.8	70.8	70.8	56	54.3	0	0	---	0.00	29.992 
01:45	70.8	70.8	70.8	56	54.3	0	0	---	0.00	29.990 
01:50	70.8	70.8	70.8	56	54.3	0	0	---	0.00	29.990 
01:55	70.6	70.6	70.6	56	54.1	0	0	---	0.00	29.990 
02:00	70.6	70.6	70.6	56	54.1	0	0	---	0.00	29.985 
02:05	70.4	70.4	70.4	56	53.9	0	0	---	0.00	29.985 
02:10	70.3	70.3	70.3	56	53.8	0	0	---	0.00	29.985 
02:15	70.1	70.1	70.1	59	55.1	0	1	135	0.00	29.991 
02:20	69.8	69.8	69.8	59	54.8	0	1	135	0.00	29.991 
02:25	69.6	69.6	69.6	60	55.1	0	0	---	0.00	29.991 
02:30	69.4	69.4	69.4	60	54.9	0	0	---	0.00	29.989 
02:35	69.4	69.4	69.4	61	55.4	0	0	---	0.00	29.989 
02:40	69.1	69.1	69.1	61	55.1	0	0	---	0.00	29.989 
02:45	69.1	69.1	69.1	61	55.1	0	0	---	0.00	29.992 
02:50	68.9	68.9	68.9	61	54.9	0	0	---	0.00	29.992 
02:55	68.8	68.8	68.8	62	55.2	0	0	---	0.00	29.992 
03:00	68.6	68.6	68.6	63	55.5	0	0	---	0.00	29.991 
03:05	68.4	68.4	68.4	63	55.3	0	0	---	0.00	29.991 
03:10	68.1	68.1	68.1	64	55.5	0	0	---	0.00	29.991 
03:15	67.9	67.9	67.9	65	55.7	0	0	---	0.00	29.986 
03:20	67.6	67.6	67.6	65	55.4	0	0	---	0.00	29.986 
03:25	67.4	67.4	67.4	66	55.6	0	0	---	0.00	29.986 
03:30	67.3	67.3	67.3	67	56.0	0	0	---	0.00	29.984 
03:35	67.1	67.1	67.1	67	55.8	0	0	---	0.00	29.984 
03:40	66.8	66.8	66.8	68	55.9	0	0	---	0.00	29.984 
03:45	66.8	66.8	66.8	69	56.3	0	0	---	0.00	29.980 
03:50	66.6	66.6	66.6	70	56.5	0	0	---	0.00	29.980 
03:55	66.4	66.4	66.4	70	56.3	0	0	---	0.00	29.980 
04:00	66.3	66.3	66.3	71	56.6	0	0	---	0.00	29.984 
04:05	66.1	66.1	66.1	72	56.8	0	0	---	0.00	29.984 
04:10	66.1	66.1	66.1	72	56.8	0	0	---	0.00	29.984 
04:15	66.0	66.0	66.0	72	56.7	0	0	---	0.00	29.981 
04:20	66.0	66.0	66.0	73	57.1	0	0	---	0.00	29.981 
04:25	66.0	66.0	66.0	73	57.1	0	0	---	0.00	29.981 
04:30	66.0	66.0	66.0	73	57.1	0	0	---	0.00	29.980 
04:35	66.0	66.0	66.0	74	57.5	0	0	---	0.00	29.980 
04:40	66.0	66.0	66.0	74	57.5	0	0	---	0.00	29.980 
04:45	66.0	66.0	66.0	74	57.5	0	0	---	0.00	29.980 
04:50	65.8	65.8	65.8	74	57.3	0	0	---	0.00	29.980 
04:55	65.8	65.8	65.8	74	57.3	0	0	---	0.00	29.980 
05:00	65.6	65.6	65.6	75	57.5	0	0	---	0.00	29.979 
05:05	65.5	65.5	65.5	75	57.4	0	0	---	0.00	29.979 
05:10	65.3	65.3	65.3	75	57.2	0	0	---	0.00	29.979 
05:15	65.2	65.2	65.2	76	57.4	0	0	---	0.00	29.979 
05:20	64.8	64.8	64.8	76	57.0	0	0	---	0.00	29.979 
05:25	64.7	64.7	64.7	77	57.3	0	0	---	0.00	29.979 
05:30	64.5	64.5	64.5	77	57.1	0	0	---	0.00	29.980 
05:35	64.3	64.3	64.3	77	56.9	0	0	---	0.00	29.980 
05:40	64.2	64.2	64.2	78	57.2	0	0	---	0.00	29.980 
05:45	64.0	64.0	64.0	79	57.4	0	0	---	0.00	29.980 
05:50	63.9	63.9	63.9	79	57.3	0	0	---	0.00	29.980 
05:55	63.7	63.7	63.7	80	57.4	0	0	---	0.00	29.980 
06:00	63.5	63.5	63.5	80	57.2	0	0	---	0.00	29.979 
06:05	63.5	63.5	63.5	81	57.6	0	0	---	0.00	29.979 
06:10	63.4	63.4	63.4	81	57.5	0	0	---	0.00	29.979 
06:15	63.4	63.4	63.4	81	57.5	0	0	---	0.00	29.983 
06:20	63.5	63.5	63.5	82	57.9	0	0	---	0.00	29.983 
06:25	63.7	63.7	63.7	82	58.1	0	0	---	0.00	29.983 
06:30	63.9	63.9	63.9	83	58.6	0	0	---	0.00	29.985 
06:35	64.0	64.0	64.0	82	58.4	0	0	---	0.00	29.985 
06:40	64.2	64.2	64.2	82	58.6	0	0	---	0.00	29.985 
06:45	64.3	64.3	64.3	82	58.7	0	0	---	0.00	29.984 
06:50	64.5	64.5	64.5	82	58.9	0	0	---	0.00	29.984 
06:55	64.5	64.5	64.5	82	58.9	0	0	---	0.00	29.984 
07:00	64.8	64.8	64.8	82	59.2	0	0	---	0.00	29.984 
07:05	65.0	65.0	65.0	82	59.4	0	0	---	0.00	29.984 
07:10	65.3	65.3	65.3	83	60.0	0	0	---	0.00	29.984 
07:15	65.5	65.5	65.5	82	59.9	0	0	---	0.00	29.981 
07:20	65.8	65.8	65.8	82	60.1	0	0	---	0.00	29.981 
07:25	66.0	66.0	66.0	81	60.0	0	0	---	0.00	29.981 
07:30	66.1	66.1	66.1	79	59.4	0	0	---	0.00	29.980 
07:35	66.3	66.3	66.3	78	59.2	0	0	---	0.00	29.980 
07:40	66.3	66.3	66.3	77	58.9	0	0	---	0.00	29.980 
07:45	66.6	66.6	66.6	77	59.2	0	0	---	0.00	29.980 
07:50	67.1	67.1	67.1	76	59.3	0	0	---	0.00	29.980 
07:55	68.3	68.3	68.3	71	58.5	0	0	---	0.00	29.980 
08:00	69.8	69.8	69.8	65	57.5	0	0	---	0.00	29.980 
08:05	71.1	71.1	71.1	62	57.4	0	0	---	0.00	29.980 
08:10	72.0	72.0	72.0	60	57.3	0	0	---	0.00	29.980 
08:15	72.5	72.5	72.5	60	57.8	0	0	---	0.00	29.977 
08:20	72.7	72.7	72.7	57	56.6	0	2	135	0.00	29.977 
08:25	73.0	73.0	73.0	58	57.3	0	1	135	0.00	29.977 
08:30	73.5	73.5	73.5	56	56.8	0	1	135	0.00	29.975 
08:35	74.6	74.6	74.6	53	56.3	0	1	135	0.00	29.975 
08:40	75.8	75.8	78.0	51	56.4	0	1	135	0.00	29.975 
08:45	76.5	76.5	78.3	50	56.5	0	1	135	0.00	29.974 
08:50	77.0	77.0	78.6	49	56.4	0	1	135	0.00	29.974 
08:55	77.6	77.6	78.8	46	55.2	0	1	135	0.00	29.974 
09:00	78.3	78.3	79.2	45	55.2	0	2	135	0.00	29.974 
09:05	78.6	78.6	79.3	44	54.8	1	4	135	0.00	29.974 
09:10	78.5	78.5	79.3	45	55.4	1	3	270	0.00	29.974 
09:15	78.3	78.3	79.2	45	55.2	0	1	270	0.00	29.980 
09:20	78.3	78.3	79.3	47	56.4	1	3	270	0.00	29.980 
09:25	78.6	78.6	79.4	46	56.1	0	2	270	0.00	29.980 
09:30	78.6	78.6	79.4	45	55.5	1	3	270	0.00	29.978 
09:35	78.8	78.8	79.6	46	56.2	0	2	270	0.00	29.978 
09:40	78.6	78.6	79.3	44	54.8	2	3	270	0.00	29.978 
09:45	78.6	78.6	79.4	45	55.5	1	3	270	0.00	29.978 
09:50	78.6	78.6	79.4	45	55.5	1	4	270	0.00	29.978 
09:55	78.5	78.5	79.2	43	54.1	1	3	270	0.00	29.978 
10:00	78.6	78.6	79.4	45	55.5	1	4	292	0.00	29.977 
10:05	79.0	79.0	79.6	44	55.2	1	4	292	0.00	29.977 
10:10	79.2	79.2	79.8	45	56.0	1	3	248	0.00	29.977 
10:15	80.1	80.1	80.3	43	55.6	1	3	248	0.00	29.975 
10:20	80.9	80.9	80.8	42	55.6	1	4	248	0.00	29.975 
10:25	81.2	81.2	80.8	40	54.6	2	4	248	0.00	29.975 
10:30	81.4	81.4	81.2	42	56.1	1	3	248	0.00	29.974 
10:35	82.0	82.0	81.6	41	55.9	1	3	248	0.00	29.974 
10:40	82.8	82.8	82.0	39	55.3	1	4	22	0.00	29.974 
10:45	83.2	83.2	82.4	39	55.6	1	3	225	0.00	29.968 
10:50	83.4	83.4	82.4	38	55.1	2	4	270	0.00	29.968 
10:55	83.8	83.8	82.9	39	56.2	1	3	315	0.00	29.968 
11:00	84.3	84.3	83.3	38	55.9	1	3	315	0.00	29.969 
11:05	84.5	84.5	83.6	39	56.8	1	2	0	0.00	29.969 
11:10	84.9	84.9	83.6	36	54.9	2	4	0	0.00	29.969 
11:15	84.9	84.9	83.6	36	54.9	2	4	248	0.00	29.971 
11:20	85.1	85.1	83.8	36	55.1	1	3	270	0.00	29.971 
11:25	85.5	85.5	84.3	37	56.2	1	4	248	0.00	29.971 
11:30	85.5	85.5	83.8	34	53.9	2	4	248	0.00	29.970 
11:35	85.5	85.5	83.8	34	53.9	2	5	292	0.00	29.970 
11:40	85.7	85.7	84.2	35	54.9	2	4	292	0.00	29.970 
11:45	85.9	85.9	83.9	32	52.6	2	5	270	0.00	29.969 
11:50	86.1	86.1	84.0	31	51.9	2	5	270	0.00	29.969 
11:55	86.3	86.3	84.3	32	52.9	2	5	292	0.00	29.969 
12:00	86.5	86.5	84.5	32	53.1	2	4	248	0.00	29.960 
12:05	87.0	87.0	84.9	31	52.7	2	4	248	0.00	29.960 
12:10	86.7	86.7	84.3	29	50.6	2	5	292	0.00	29.960 
12:15	86.5	86.5	84.1	29	50.4	2	4	292	0.00	29.957 
12:20	86.7	86.7	84.6	31	52.4	2	4	292	0.00	29.957 
12:25	87.2	87.2	85.1	31	52.8	1	3	338	0.00	29.957 
12:30	87.4	87.4	85.0	29	51.2	2	4	338	0.00	29.945 
12:35	87.6	87.6	85.5	31	53.2	2	4	315	0.00	29.945 
12:40	87.8	87.8	85.2	28	50.6	1	4	248	0.00	29.945 
12:45	88.2	88.2	85.6	28	50.9	2	6	248	0.00	29.943 
12:50	88.6	88.6	85.9	27	50.3	1	4	270	0.00	29.943 
12:55	88.8	88.8	85.8	25	48.4	2	4	270	0.00	29.943 
13:00	88.4	88.4	85.7	27	50.1	1	3	270	0.00	29.941 
13:05	87.8	87.8	85.2	28	50.6	2	5	270	0.00	29.941 
13:10	87.2	87.2	84.6	28	50.1	1	3	270	0.00	29.941 
13:15	87.4	87.4	84.7	27	49.3	2	3	292	0.00	29.937 
13:20	87.8	87.8	85.2	28	50.6	0	1	292	0.00	29.937 
13:25	88.4	88.4	85.8	28	51.1	2	4	315	0.00	29.937 
13:30	88.2	88.2	85.5	27	50.0	2	5	292	0.00	29.930 
13:35	88.4	88.4	85.7	27	50.1	1	4	270	0.00	29.930 
13:40	88.8	88.8	86.2	28	51.4	1	4	270	0.00	29.930 
13:45	89.0	89.0	86.4	28	51.6	1	3	315	0.00	29.929 
13:50	89.5	89.5	86.8	27	51.1	1	4	90	0.00	29.929 
13:55	89.7	89.7	86.8	26	50.2	2	5	270	0.00	29.929 
14:00	89.9	89.9	87.2	27	51.4	3	5	292	0.00	29.929 
14:05	89.7	89.7	87.0	27	51.2	1	3	270	0.00	29.929 
14:10	89.5	89.5	86.8	27	51.1	1	3	270	0.00	29.929 
14:15	88.6	88.6	85.9	27	50.3	2	4	292	0.00	29.928 
14:20	88.8	88.8	86.1	27	50.5	1	3	292	0.00	29.928 
14:25	89.0	89.0	86.3	27	50.6	1	3	292	0.00	29.928 
14:30	89.5	89.5	86.8	27	51.1	1	4	292	0.00	29.923 
14:35	89.7	89.7	87.0	27	51.2	1	3	292	0.00	29.923 
14:40	89.5	89.5	86.8	27	51.1	2	4	292	0.00	29.923 
14:45	88.8	88.8	86.2	28	51.4	1	3	292	0.00	29.916 
14:50	88.8	88.8	86.1	27	50.5	3	5	292	0.00	29.916 
14:55	89.0	89.0	86.4	28	51.6	1	3	315	0.00	29.916 
15:00	89.3	89.3	86.4	26	49.9	1	2	315	0.00	29.910 
15:05	89.3	89.3	86.6	27	50.9	1	5	315	0.00	29.910 
15:10	88.8	88.8	86.1	27	50.5	1	2	248	0.00	29.910 
15:15	88.2	88.2	85.5	27	50.0	2	4	248	0.00	29.913 
15:20	87.6	87.6	85.0	28	50.4	2	4	338	0.00	29.913 
15:25	87.4	87.4	84.7	27	49.3	1	4	315	0.00	29.913 
15:30	87.4	87.4	85.0	29	51.2	1	4	248	0.00	29.910 
15:35	87.2	87.2	84.5	27	49.1	1	2	315	0.00	29.910 
15:40	87.2	87.2	84.6	28	50.1	1	4	315	0.00	29.910 
15:45	87.2	87.2	84.8	29	51.0	1	3	292	0.00	29.902 
15:50	87.6	87.6	85.2	29	51.4	0	1	292	0.00	29.902 
15:55	88.0	88.0	85.6	29	51.7	0	2	292	0.00	29.902 
16:00	88.4	88.4	86.0	29	52.1	1	2	292	0.00	29.898 
16:05	88.0	88.0	85.4	28	50.8	2	5	270	0.00	29.898 
16:10	88.0	88.0	85.7	30	52.6	1	2	270	0.00	29.898 
16:15	88.0	88.0	86.1	32	54.4	0	2	270	0.00	29.894 
16:20	88.0	88.0	85.7	30	52.6	0	2	270	0.00	29.894 
16:25	88.6	88.6	86.4	30	53.2	1	2	270	0.00	29.894 
16:30	89.3	89.3	87.3	31	54.7	1	5	90	0.00	29.887 
16:35	89.9	89.9	88.0	31	55.2	2	5	90	0.00	29.887 
16:40	90.3	90.3	87.7	27	51.7	1	3	112	0.00	29.887 
16:45	90.3	90.3	88.1	29	53.7	1	4	112	0.00	29.881 
16:50	89.7	89.7	87.4	29	53.2	1	2	112	0.00	29.881 
16:55	89.0	89.0	86.8	30	53.5	0	1	112	0.00	29.881 
17:00	89.0	89.0	86.8	30	53.5	1	4	112	0.00	29.881 
17:05	89.3	89.3	86.8	28	51.9	0	2	112	0.00	29.881 
17:10	89.3	89.3	87.1	30	53.8	1	5	292	0.00	29.881 
17:15	89.3	89.3	86.6	27	50.9	2	4	292	0.00	29.882 
17:20	89.0	89.0	86.4	28	51.6	2	4	270	0.00	29.882 
17:25	88.8	88.8	86.2	28	51.4	3	9	270	0.00	29.882 
17:30	88.8	88.8	86.2	28	51.4	2	4	315	0.00	29.878 
17:35	89.3	89.3	86.8	28	51.9	1	3	315	0.00	29.878 
17:40	89.3	89.3	86.8	28	51.9	1	4	315	0.00	29.878 
17:45	89.0	89.0	86.8	30	53.5	0	4	315	0.00	29.875 
17:50	89.3	89.3	86.9	29	52.8	1	4	315	0.00	29.875 
17:55	89.5	89.5	87.4	30	53.9	0	3	292	0.00	29.875 
18:00	89.5	89.5	87.2	29	53.0	1	3	292	0.00	29.867 
18:05	89.7	89.7	87.4	29	53.2	1	3	338	0.00	29.867 
18:10	89.7	89.7	87.4	29	53.2	1	2	338	0.00	29.867 
18:15	89.7	89.7	87.4	29	53.2	1	3	338	0.00	29.865 
18:20	89.5	89.5	87.4	30	53.9	1	3	292	0.00	29.865 
18:25	89.0	89.0	87.0	31	54.4	1	3	292	0.00	29.865 
18:30	89.0	89.0	86.8	30	53.5	2	4	315	0.00	29.861 
18:35	89.0	89.0	86.8	30	53.5	2	5	270	0.00	29.861 
18:40	89.0	89.0	86.8	30	53.5	0	2	270	0.00	29.861 
18:45	89.0	89.0	87.2	32	55.3	0	2	270	0.00	29.859 
18:50	89.3	89.3	87.3	31	54.7	2	5	270	0.00	29.859 
18:55	89.0	89.0	87.0	31	54.4	1	3	270	0.00	29.859 
19:00	89.0	89.0	87.2	32	55.3	1	3	270	0.00	29.858 
19:05	89.0	89.0	87.0	31	54.4	2	4	292	0.00	29.858 
19:10	88.8	88.8	86.8	31	54.2	2	4	292	0.00	29.858 
19:15	88.8	88.8	86.8	31	54.2	2	4	292	0.00	29.855 
19:20	88.8	88.8	86.8	31	54.2	2	5	315	0.00	29.855 
19:25	88.6	88.6	86.7	32	54.9	2	5	292	0.00	29.855 
19:30	88.4	88.4	86.5	32	54.7	1	4	292	0.00	29.857 
19:35	88.4	88.4	86.3	31	53.9	1	3	292	0.00	29.857 
19:40	88.2	88.2	86.3	32	54.6	2	4	270	0.00	29.857 
19:45	88.0	88.0	86.1	32	54.4	2	4	270	0.00	29.859 
19:50	87.8	87.8	86.1	33	55.1	1	4	270	0.00	29.859 
19:55	87.6	87.6	86.0	34	55.7	2	4	315	0.00	29.859 
20:00	87.2	87.2	85.8	35	56.2	1	3	315	0.00	29.860 
20:05	86.7	86.7	85.2	35	55.7	1	5	315	0.00	29.860 
20:10	86.5	86.5	85.0	35	55.6	1	3	270	0.00	29.860 
20:15	86.5	86.5	85.2	36	56.3	2	4	270	0.00	29.856 
20:20	86.5	86.5	85.2	36	56.3	1	4	248	0.00	29.856 
20:25	86.3	86.3	85.0	36	56.2	2	4	315	0.00	29.856 
20:30	86.1	86.1	84.8	36	56.0	1	4	270	0.00	29.859 
20:35	85.9	85.9	84.7	37	56.6	1	3	270	0.00	29.859 
20:40	85.7	85.7	84.5	37	56.4	0	2	270	0.00	29.859 
20:45	85.5	85.5	84.5	38	57.0	0	2	270	0.00	29.858 
20:50	84.9	84.9	84.0	39	57.1	0	2	270	0.00	29.858 
20:55	84.5	84.5	83.8	40	57.5	0	2	270	0.00	29.858 
21:00	84.0	84.0	83.3	40	57.0	0	1	270	0.00	29.860 
21:05	83.8	83.8	83.2	41	57.6	0	2	270	0.00	29.860 
21:10	83.4	83.4	82.9	41	57.2	0	2	270	0.00	29.860 
21:15	83.2	83.2	82.8	42	57.7	0	1	270	0.00	29.860 
21:20	83.0	83.0	82.8	43	58.2	0	0	---	0.00	29.860 
21:25	82.6	82.6	82.4	43	57.8	0	2	270	0.00	29.860 
21:30	82.4	82.4	82.3	44	58.3	0	1	270	0.00	29.863 
21:35	82.2	82.2	82.1	44	58.1	0	1	270	0.00	29.863 
21:40	82.0	82.0	82.1	45	58.5	0	1	270	0.00	29.863 
21:45	81.8	81.8	81.9	45	58.4	0	2	270	0.00	29.870 
21:50	81.6	81.6	81.7	45	58.2	0	1	270	0.00	29.870 
21:55	81.6	81.6	81.7	45	58.2	0	2	270	0.00	29.870 
22:00	81.4	81.4	81.5	45	58.0	0	1	270	0.00	29.877 
22:05	81.2	81.2	81.5	46	58.4	0	1	270	0.00	29.877 
22:10	80.9	80.9	81.2	46	58.2	0	1	270	0.00	29.877 
22:15	80.9	80.9	81.2	46	58.2	0	2	270	0.00	29.877 
22:20	80.7	80.7	80.9	45	57.4	0	1	270	0.00	29.877 
22:25	80.3	80.3	80.6	45	57.0	0	2	270	0.00	29.877 
22:30	80.3	80.3	80.6	45	57.0	0	2	270	0.00	29.876 
22:35	80.1	80.1	80.4	45	56.8	0	1	270	0.00	29.876 
22:40	79.9	79.9	80.3	45	56.6	0	1	270	0.00	29.876 
22:45	79.8	79.8	80.2	45	56.5	0	1	270	0.00	29.878 
22:50	79.8	79.8	80.2	45	56.5	0	2	270	0.00	29.878 
22:55	79.6	79.6	80.1	46	57.0	0	1	270	0.00	29.878 
23:00	79.6	79.6	80.1	46	57.0	0	2	270	0.00	29.883 
23:05	79.6	79.6	80.1	46	57.0	0	1	270	0.00	29.883 
23:10	79.4	79.4	80.0	46	56.8	0	1	270	0.00	29.883 
23:15	79.2	79.2	79.8	46	56.6	0	2	270	0.00	29.878 
23:20	79.2	79.2	79.8	46	56.6	0	1	270	0.00	29.878 
23:25	79.0	79.0	79.8	47	57.0	0	1	270	0.00	29.878 
23:30	78.8	78.8	79.6	47	56.8	0	0	---	0.00	29.876 
23:35	78.6	78.6	79.5	48	57.2	0	2	270	0.00	29.876 
23:40	78.5	78.5	79.5	49	57.7	0	1	270	0.00	29.876 
23:45	78.3	78.3	79.4	49	57.5	0	1	270	0.00	29.875 
23:50	78.1	78.1	79.3	50	57.9	0	2	270	0.00	29.875 
23:55	77.9	77.9	79.2	50	57.7	0	1	270	0.00	29.875 

CoCoRaHS
IN-AL-39
A2 Web Hosting
Creative Commons License
GoDaddy
search engine by freefind advanced

loaded 2018-11-15 03:00:21 • last modified 2010-11-18 10:43:29
Privacy PolicyDisclaimer
• wx.awcolley.com is powered by PmWiki v.2002016 •
• all content (unless otherwise noted) © 2018 A W Colley